Time;durP1;ratioP1;P1;durP2;ratioP2;P2;SDS_P1;SDS_P2;PMS_P1;PMS_P2;Temp;Humidity;BMP_temperature;BMP_pressure;BME280_temperature;BME280_humidity;BME280_pressure;Samples;Min_cycle;Max_cycle;Signal;HPM_P1;HPM_P2
2022/04/26 03:38:10;;;;;;;7.43;3.30;;;15.30;99.90;;;;;;5093260;28;20435;-68
2022/04/26 03:40:37;;;;;;;10.07;3.30;;;15.30;99.90;;;;;;5093490;28;20443;-66
2022/04/26 03:43:04;;;;;;;7.17;3.33;;;15.30;99.90;;;;;;5093465;28;20447;-67
2022/04/26 03:45:31;;;;;;;6.87;3.87;;;15.30;99.90;;;;;;5093284;28;20452;-67
2022/04/26 03:47:58;;;;;;;7.17;4.20;;;15.20;99.90;;;;;;5093365;28;20455;-67
2022/04/26 03:50:27;;;;;;;6.90;3.73;;;15.30;99.90;;;;;;5092581;28;20504;-66
2022/04/26 03:52:54;;;;;;;7.70;4.30;;;15.30;99.90;;;;;;5093197;28;20486;-67
2022/04/26 03:55:21;;;;;;;7.20;3.50;;;15.30;99.90;;;;;;5092974;28;21025;-67
2022/04/26 03:57:48;;;;;;;10.00;3.93;;;15.30;99.90;;;;;;5092839;28;20455;-69
2022/04/26 04:00:16;;;;;;;9.70;4.20;;;15.30;99.90;;;;;;5093068;28;20799;-67
2022/04/26 04:02:43;;;;;;;8.17;3.83;;;15.30;99.90;;;;;;5093183;28;20535;-67
2022/04/26 04:05:11;;;;;;;7.20;3.30;;;15.40;99.90;;;;;;5092784;28;20471;-69
2022/04/26 04:07:39;;;;;;;7.50;3.87;;;15.40;99.90;;;;;;5092455;28;20459;-67
2022/04/26 04:10:07;;;;;;;7.40;3.97;;;15.50;99.90;;;;;;5092674;28;20465;-67
2022/04/26 04:12:34;;;;;;;9.13;3.20;;;15.60;99.90;;;;;;5092671;28;20756;-77
2022/04/26 04:15:01;;;;;;;8.80;3.30;;;15.70;99.90;;;;;;5092255;28;20472;-76
2022/04/26 04:17:29;;;;;;;7.57;3.50;;;15.80;99.90;;;;;;5092702;28;20452;-77
2022/04/26 04:19:56;;;;;;;6.57;3.60;;;15.80;99.90;;;;;;5092614;28;20452;-76
2022/04/26 04:22:23;;;;;;;11.23;5.03;;;15.90;99.90;;;;;;5092782;28;20860;-77
2022/04/26 04:24:51;;;;;;;6.60;4.23;;;16.10;99.90;;;;;;5092487;28;20476;-77
2022/04/26 04:27:18;;;;;;;8.60;3.57;;;16.20;99.90;;;;;;5092413;28;20455;-76
2022/04/26 04:29:46;;;;;;;8.07;3.43;;;16.20;99.90;;;;;;5092431;28;20452;-77
2022/04/26 04:32:13;;;;;;;10.37;3.87;;;16.30;99.90;;;;;;5091062;28;20958;-83
2022/04/26 04:34:41;;;;;;;10.13;4.10;;;16.30;99.90;;;;;;5092562;28;20481;-79
2022/04/26 04:37:08;;;;;;;6.87;3.30;;;16.40;99.90;;;;;;5091564;28;20459;-80
2022/04/26 04:39:35;;;;;;;8.23;3.50;;;16.50;99.90;;;;;;5092528;28;20455;-79
2022/04/26 04:42:05;;;;;;;6.63;2.90;;;16.50;99.90;;;;;;5092537;28;20501;-83
2022/04/26 04:44:32;;;;;;;7.70;3.40;;;16.50;99.90;;;;;;5092302;28;20487;-79
2022/04/26 04:47:00;;;;;;;10.10;3.87;;;16.50;99.90;;;;;;5092294;28;20513;-79
2022/04/26 04:49:27;;;;;;;11.80;2.97;;;16.60;99.90;;;;;;5091899;28;20881;-78
2022/04/26 04:51:54;;;;;;;5.90;2.30;;;16.40;99.90;;;;;;5091667;28;20492;-80
2022/04/26 04:54:21;;;;;;;7.60;2.50;;;16.40;99.90;;;;;;5092215;28;20491;-81
2022/04/26 04:56:48;;;;;;;7.30;2.60;;;16.50;99.90;;;;;;5092165;28;20452;-79
2022/04/26 04:59:17;;;;;;;6.10;2.53;;;16.50;99.90;;;;;;5092235;28;20460;-82
2022/04/26 05:01:44;;;;;;;11.13;3.20;;;16.60;99.90;;;;;;5092242;28;20823;-82
2022/04/26 05:04:11;;;;;;;8.10;2.43;;;16.80;99.90;;;;;;5091971;28;20498;-79
2022/04/26 05:06:38;;;;;;;8.03;2.70;;;16.80;99.90;;;;;;5091581;28;20463;-80
2022/04/26 05:09:05;;;;;;;8.83;2.53;;;16.90;99.90;;;;;;5091865;28;20437;-79
2022/04/26 05:11:33;;;;;;;6.60;2.40;;;17.00;99.90;;;;;;5091593;28;20480;-79
2022/04/26 05:14:00;;;;;;;7.83;2.60;;;17.20;99.90;;;;;;5091211;28;20552;-79
2022/04/26 05:16:28;;;;;;;9.07;2.80;;;17.40;99.90;;;;;;5091395;28;20460;-79
2022/04/26 05:18:56;;;;;;;5.93;2.07;;;17.40;99.90;;;;;;5091761;28;20452;-79
2022/04/26 05:21:23;;;;;;;6.77;2.50;;;17.50;99.90;;;;;;5091646;28;20463;-70
2022/04/26 05:26:34;;;;;;;7.90;2.70;;;17.60;99.90;;;;;;5090891;28;20431;-70
2022/04/26 05:29:02;;;;;;;8.50;2.70;;;17.70;99.90;;;;;;5091093;28;20456;-70
2022/04/26 05:31:30;;;;;;;8.67;2.57;;;17.90;99.80;;;;;;5091026;28;20484;-70
2022/04/26 05:33:57;;;;;;;7.60;2.10;;;17.90;99.80;;;;;;5091173;28;20471;-71
2022/04/26 05:36:24;;;;;;;6.90;2.13;;;18.00;99.70;;;;;;5091027;28;20543;-71
2022/04/26 05:38:54;;;;;;;9.00;2.37;;;18.10;99.10;;;;;;5090892;28;20516;-71
2022/04/26 05:41:21;;;;;;;4.63;2.03;;;18.10;98.70;;;;;;5091152;28;20452;-70
2022/04/26 05:43:48;;;;;;;6.03;2.10;;;18.00;98.80;;;;;;5090660;28;20529;-69
2022/04/26 05:46:15;;;;;;;7.43;2.30;;;17.80;98.20;;;;;;5090681;28;20464;-72
2022/04/26 05:48:44;;;;;;;4.60;1.77;;;17.70;98.70;;;;;;5090837;28;20460;-69
2022/04/26 05:51:11;;;;;;;6.90;1.83;;;17.90;98.70;;;;;;5090628;28;20500;-70
2022/04/26 05:53:39;;;;;;;6.40;2.43;;;18.20;98.00;;;;;;5090648;28;20509;-71
2022/04/26 05:56:08;;;;;;;7.97;2.10;;;18.30;97.50;;;;;;5090346;28;20919;-70
2022/04/26 05:58:35;;;;;;;8.10;2.20;;;18.40;96.50;;;;;;5090432;28;20945;-70
2022/04/26 06:01:03;;;;;;;6.23;2.33;;;18.50;96.00;;;;;;5090649;28;20463;-71
2022/04/26 06:03:30;;;;;;;6.40;2.07;;;18.60;95.10;;;;;;5090250;28;20464;-70
2022/04/26 06:05:59;;;;;;;11.00;2.70;;;18.60;94.80;;;;;;5090026;28;20482;-70
2022/04/26 06:08:26;;;;;;;5.27;2.10;;;18.60;94.50;;;;;;5090355;28;20796;-69
2022/04/26 06:10:53;;;;;;;5.33;2.07;;;18.70;94.80;;;;;;5090349;28;20459;-71
2022/04/26 06:13:20;;;;;;;6.77;2.80;;;18.80;94.10;;;;;;5090477;28;20476;-71
2022/04/26 06:15:47;;;;;;;6.73;2.60;;;19.00;93.90;;;;;;5090404;28;20447;-70
2022/04/26 06:18:14;;;;;;;6.80;2.43;;;19.00;93.30;;;;;;5090430;28;20453;-70
2022/04/26 06:20:41;;;;;;;8.93;2.83;;;19.00;93.20;;;;;;5090066;28;20448;-70
2022/04/26 06:23:11;;;;;;;7.97;2.50;;;19.10;93.00;;;;;;5089799;28;20476;-71
2022/04/26 06:25:39;;;;;;;9.83;2.90;;;19.20;92.60;;;;;;5090034;28;21057;-70
2022/04/26 06:28:08;;;;;;;9.03;3.40;;;19.40;92.50;;;;;;5090194;28;20505;-70
2022/04/26 06:30:38;;;;;;;6.13;2.77;;;19.50;92.20;;;;;;5090180;28;20456;-70
2022/04/26 06:33:05;;;;;;;6.53;2.90;;;19.60;91.60;;;;;;5089530;28;20602;-70
2022/04/26 06:35:32;;;;;;;10.03;3.10;;;19.90;90.70;;;;;;5089513;28;20447;-71
2022/04/26 06:37:59;;;;;;;7.27;3.40;;;20.00;90.60;;;;;;5089685;28;20459;-69
2022/04/26 06:40:28;;;;;;;10.00;2.57;;;20.10;90.10;;;;;;5089436;28;20447;-70
2022/04/26 06:42:55;;;;;;;6.43;2.63;;;20.40;87.90;;;;;;5089952;28;20463;-71
2022/04/26 06:45:22;;;;;;;9.33;3.30;;;20.60;86.20;;;;;;5089871;28;20451;-70
2022/04/26 06:47:50;;;;;;;6.23;2.53;;;20.70;86.70;;;;;;5089488;28;20448;-70
2022/04/26 06:50:18;;;;;;;8.27;2.67;;;20.60;85.50;;;;;;5089339;28;20587;-70
2022/04/26 06:52:45;;;;;;;6.60;2.23;;;20.70;85.50;;;;;;5089446;28;20492;-70
2022/04/26 06:55:12;;;;;;;9.80;3.13;;;21.00;83.20;;;;;;5088306;28;20479;-70
2022/04/26 06:57:41;;;;;;;10.80;2.93;;;21.00;82.20;;;;;;5089711;28;20475;-70
2022/04/26 07:00:10;;;;;;;7.57;2.60;;;21.20;81.60;;;;;;5089028;28;20538;-70
2022/04/26 07:02:37;;;;;;;6.60;2.47;;;21.30;80.10;;;;;;5088753;28;20455;-70
2022/04/26 07:05:05;;;;;;;5.20;2.17;;;21.40;79.30;;;;;;5089330;28;20455;-69
2022/04/26 07:07:32;;;;;;;7.23;2.30;;;21.50;78.80;;;;;;5089089;28;20452;-69
2022/04/26 07:09:59;;;;;;;5.53;1.87;;;21.60;78.70;;;;;;5089409;28;20948;-70
2022/04/26 07:12:26;;;;;;;7.20;2.20;;;21.80;77.50;;;;;;5089392;28;20495;-71
2022/04/26 07:14:55;;;;;;;7.87;2.27;;;21.70;78.80;;;;;;5089156;28;20920;-71
2022/04/26 07:17:22;;;;;;;7.37;2.77;;;21.90;77.40;;;;;;5089441;28;20803;-72
2022/04/26 07:19:49;;;;;;;6.73;2.17;;;22.00;76.00;;;;;;5089355;28;21004;-69
2022/04/26 07:22:16;;;;;;;7.90;2.30;;;22.30;75.40;;;;;;5089475;28;20928;-71
2022/04/26 07:24:44;;;;;;;6.33;2.00;;;22.40;74.70;;;;;;5089247;28;20468;-71
2022/04/26 07:27:11;;;;;;;6.40;2.67;;;22.30;74.90;;;;;;5089487;28;20579;-69
2022/04/26 07:29:41;;;;;;;10.13;2.27;;;22.50;74.70;;;;;;5089431;28;20463;-71
2022/04/26 07:32:09;;;;;;;5.70;1.67;;;22.60;72.40;;;;;;5089117;28;20803;-70
2022/04/26 07:34:36;;;;;;;6.20;2.47;;;22.60;72.60;;;;;;5089335;28;20879;-70
2022/04/26 07:37:04;;;;;;;7.90;2.10;;;22.90;72.00;;;;;;5089442;28;20952;-70
2022/04/26 07:39:33;;;;;;;7.37;2.53;;;23.10;71.40;;;;;;5089377;28;20452;-71
2022/04/26 07:42:02;;;;;;;6.20;2.10;;;23.40;70.00;;;;;;5088833;28;20451;-70
2022/04/26 07:44:29;;;;;;;4.90;1.90;;;23.60;68.00;;;;;;5089126;28;20476;-69
2022/04/26 07:46:56;;;;;;;7.10;1.80;;;23.70;66.90;;;;;;5089131;28;20452;-70
2022/04/26 07:49:26;;;;;;;6.00;2.27;;;23.60;65.70;;;;;;5088712;28;20448;-70
2022/04/26 07:51:55;;;;;;;7.70;2.50;;;23.60;66.00;;;;;;5088999;28;20588;-71
2022/04/26 07:54:23;;;;;;;6.33;2.40;;;23.70;65.80;;;;;;5088967;28;20984;-70
2022/04/26 07:56:51;;;;;;;9.60;2.20;;;23.80;66.10;;;;;;5088956;28;20456;-70
2022/04/26 07:59:18;;;;;;;3.90;1.40;;;23.90;65.60;;;;;;5088848;28;20808;-71
2022/04/26 08:01:45;;;;;;;7.90;1.70;;;23.90;64.80;;;;;;5088841;28;20448;-69
2022/04/26 08:04:12;;;;;;;7.20;2.20;;;23.90;64.70;;;;;;5088858;28;20964;-71
2022/04/26 08:06:42;;;;;;;5.93;2.00;;;24.00;65.60;;;;;;5088867;28;20794;-70
2022/04/26 08:09:09;;;;;;;7.43;2.40;;;24.20;64.50;;;;;;5088498;28;20460;-70
2022/04/26 08:11:37;;;;;;;8.20;1.60;;;24.30;63.50;;;;;;5091214;28;20574;-70
2022/04/26 08:14:04;;;;;;;6.87;1.83;;;24.30;61.80;;;;;;5092554;28;20498;-69
2022/04/26 08:16:32;;;;;;;8.80;1.80;;;24.60;63.00;;;;;;5092552;28;20515;-70
2022/04/26 08:18:59;;;;;;;7.80;1.70;;;24.70;62.20;;;;;;5092498;28;20576;-70
2022/04/26 08:21:26;;;;;;;5.63;2.23;;;24.70;62.10;;;;;;5092374;28;20528;-72
2022/04/26 08:29:24;;;;;;;11.03;3.97;;;24.30;63.20;;;;;;5092222;28;20463;-71
2022/04/26 08:31:52;;;;;;;14.20;3.70;;;24.30;63.70;;;;;;5092301;28;20498;-71
2022/04/26 08:34:19;;;;;;;10.93;2.83;;;24.50;63.70;;;;;;5092067;28;20476;-69
2022/04/26 08:36:47;;;;;;;6.30;2.17;;;24.60;63.20;;;;;;5092113;28;20456;-70
2022/04/26 08:39:15;;;;;;;8.10;2.00;;;24.70;65.40;;;;;;5092088;28;21020;-71
2022/04/26 08:41:43;;;;;;;11.73;2.87;;;24.80;63.00;;;;;;5092078;28;20448;-70
2022/04/26 08:44:10;;;;;;;8.03;2.50;;;25.00;63.60;;;;;;5091998;28;20472;-70
2022/04/26 08:52:08;;;;;;;10.80;2.57;;;25.60;63.10;;;;;;5091697;28;20495;-69
2022/04/26 08:54:36;;;;;;;11.00;2.73;;;25.80;64.20;;;;;;5091789;28;20483;-71
2022/04/26 08:57:04;;;;;;;9.77;3.27;;;25.80;64.00;;;;;;5091588;28;20555;-70
2022/04/26 08:59:31;;;;;;;11.60;3.93;;;26.00;64.90;;;;;;5091465;28;20463;-71
2022/04/26 09:02:16;;;;;;;10.13;3.23;;;26.20;66.00;;;;;;5091486;28;20452;-71
2022/04/26 09:04:43;;;;;;;7.20;2.53;;;26.10;65.50;;;;;;5091524;28;20479;-69
2022/04/26 09:07:12;;;;;;;10.70;3.60;;;26.20;64.80;;;;;;5091016;28;20459;-70
2022/04/26 09:09:42;;;;;;;12.07;3.90;;;26.50;66.10;;;;;;5091459;28;20522;-70
2022/04/26 09:12:12;;;;;;;14.10;3.40;;;26.70;65.70;;;;;;5091293;28;20513;-71
2022/04/26 09:14:47;;;;;;;12.07;3.67;;;26.80;62.90;;;;;;5091393;28;20991;-70
2022/04/26 09:17:17;;;;;;;8.63;2.80;;;27.00;63.10;;;;;;5091684;28;20505;-70
2022/04/26 09:19:48;;;;;;;13.77;3.30;;;27.00;62.40;;;;;;5091297;28;20885;-69
2022/04/26 09:22:20;;;;;;;8.83;2.80;;;27.00;62.20;;;;;;5090652;28;20854;-70
2022/04/26 09:24:57;;;;;;;8.60;3.10;;;27.10;61.70;;;;;;5090959;28;20940;-70
2022/04/26 09:27:24;;;;;;;8.67;3.47;;;27.00;60.50;;;;;;5091057;28;20805;-70
2022/04/26 09:29:51;;;;;;;7.20;2.73;;;27.10;63.20;;;;;;5090990;28;20456;-70
2022/04/26 09:32:18;;;;;;;9.50;2.67;;;26.80;60.40;;;;;;5090517;28;20500;-71
2022/04/26 09:34:46;;;;;;;8.53;2.53;;;26.60;61.50;;;;;;5090778;28;20549;-69
2022/04/26 09:37:13;;;;;;;10.83;2.70;;;26.50;61.10;;;;;;5090801;28;20452;-71
2022/04/26 09:39:41;;;;;;;16.47;2.80;;;26.60;62.00;;;;;;5090740;28;20492;-70
2022/04/26 09:42:10;;;;;;;9.83;3.13;;;26.50;60.50;;;;;;5090588;28;20444;-71
2022/04/26 09:44:40;;;;;;;11.30;2.63;;;26.60;61.00;;;;;;5090626;28;20530;-71
2022/04/26 09:47:08;;;;;;;11.90;3.00;;;26.80;61.70;;;;;;5090383;28;20495;-70
2022/04/26 09:49:39;;;;;;;8.03;2.90;;;27.00;61.50;;;;;;5089926;28;20478;-70
2022/04/26 09:52:08;;;;;;;7.43;2.57;;;27.10;62.00;;;;;;5090101;28;20491;-70
2022/04/26 09:54:37;;;;;;;7.07;2.80;;;27.30;61.80;;;;;;5090403;28;20475;-71
2022/04/26 09:57:06;;;;;;;12.13;5.20;;;27.60;59.90;;;;;;5090332;28;20456;-71
2022/04/26 09:59:39;;;;;;;9.00;3.60;;;27.80;58.60;;;;;;5090281;28;20447;-70
2022/04/26 10:02:10;;;;;;;10.70;2.70;;;28.00;58.80;;;;;;5090112;28;20496;-69
2022/04/26 10:04:46;;;;;;;8.93;2.40;;;28.10;58.60;;;;;;5089731;28;20984;-70
2022/04/26 10:07:19;;;;;;;11.13;3.67;;;28.30;57.70;;;;;;5090422;28;20471;-70
2022/04/26 10:09:47;;;;;;;24.80;3.93;;;28.30;57.60;;;;;;5090339;28;20445;-70
2022/04/26 10:12:15;;;;;;;8.10;2.40;;;28.10;56.20;;;;;;5089748;28;20534;-70
2022/04/26 10:14:45;;;;;;;7.13;2.20;;;28.20;57.10;;;;;;5090170;28;20495;-70
2022/04/26 10:17:14;;;;;;;9.27;2.17;;;28.30;58.40;;;;;;5089867;28;20445;-70
2022/04/26 10:19:42;;;;;;;8.10;2.40;;;28.50;56.90;;;;;;5089826;28;20452;-70
2022/04/26 10:22:11;;;;;;;12.73;2.77;;;28.30;55.40;;;;;;5089698;28;20948;-70
2022/04/26 10:24:40;;;;;;;7.90;2.60;;;28.10;56.10;;;;;;5089769;28;20476;-70
2022/04/26 10:27:22;;;;;;;11.60;3.53;;;28.20;56.20;;;;;;5089674;28;20452;-70
2022/04/26 10:29:51;;;;;;;8.33;2.50;;;28.10;55.70;;;;;;5090079;28;20452;-70
2022/04/26 10:32:30;;;;;;;10.20;2.67;;;28.30;56.40;;;;;;5089826;28;20490;-70
2022/04/26 10:35:17;;;;;;;9.67;2.77;;;28.30;54.90;;;;;;5089129;28;20569;-71
2022/04/26 10:37:45;;;;;;;10.77;2.90;;;28.40;54.80;;;;;;5089637;28;20460;-71
2022/04/26 10:40:12;;;;;;;8.33;3.23;;;28.70;52.40;;;;;;5089936;28;20488;-71
2022/04/26 10:42:39;;;;;;;8.00;3.30;;;28.90;51.80;;;;;;5089934;28;20472;-70
2022/04/26 10:45:12;;;;;;;13.27;3.90;;;28.80;51.70;;;;;;5089525;28;20562;-71
2022/04/26 10:47:40;;;;;;;9.63;2.53;;;29.10;52.60;;;;;;5089574;28;20474;-70
2022/04/26 10:50:09;;;;;;;8.00;2.80;;;29.40;51.60;;;;;;5089363;28;20913;-71
2022/04/26 10:52:43;;;;;;;6.60;2.33;;;29.70;49.70;;;;;;5088205;28;20590;-70
2022/04/26 10:55:15;;;;;;;9.33;3.00;;;29.70;49.60;;;;;;5089778;28;20494;-70
2022/04/26 10:57:44;;;;;;;9.57;2.50;;;29.90;49.60;;;;;;5089525;28;20468;-70
2022/04/26 11:00:16;;;;;;;7.40;2.87;;;30.20;49.30;;;;;;5089283;28;20502;-69
2022/04/26 11:02:44;;;;;;;11.90;2.80;;;30.40;49.00;;;;;;5089386;28;20466;-71
2022/04/26 11:05:13;;;;;;;8.97;2.60;;;30.60;48.60;;;;;;5089307;28;20480;-70
2022/04/26 11:07:41;;;;;;;7.53;2.00;;;30.70;47.20;;;;;;5089471;28;20520;-69
2022/04/26 11:10:10;;;;;;;9.20;2.10;;;30.60;47.40;;;;;;5089573;28;20459;-70
2022/04/26 11:12:40;;;;;;;6.87;2.07;;;30.60;46.40;;;;;;5089303;28;20488;-70
2022/04/26 11:15:09;;;;;;;6.47;2.10;;;30.70;47.30;;;;;;5088857;28;21099;-71
2022/04/26 11:17:37;;;;;;;6.37;2.80;;;30.50;46.70;;;;;;5089256;28;20456;-71
2022/04/26 11:20:10;;;;;;;7.77;2.67;;;30.80;46.70;;;;;;5089586;28;20448;-70
2022/04/26 11:22:44;;;;;;;5.67;2.50;;;31.00;45.80;;;;;;5089444;28;20447;-71
2022/04/26 11:28:06;;;;;;;11.17;2.83;;;30.70;45.10;;;;;;5088888;28;20872;-70
2022/04/26 11:30:36;;;;;;;6.77;2.70;;;30.40;44.50;;;;;;5089263;28;20451;-70
2022/04/26 11:33:06;;;;;;;6.47;2.03;;;30.10;46.00;;;;;;5089360;28;20487;-70
2022/04/26 11:35:37;;;;;;;7.10;2.53;;;29.70;47.30;;;;;;5089200;28;20475;-70
2022/04/26 11:38:09;;;;;;;6.33;2.40;;;29.50;46.40;;;;;;5089049;28;20908;-71
2022/04/26 11:40:38;;;;;;;5.23;2.23;;;29.40;46.40;;;;;;5089051;28;20501;-71
2022/04/26 11:43:13;;;;;;;6.70;2.27;;;29.20;46.40;;;;;;5089363;28;20448;-70
2022/04/26 11:45:42;;;;;;;12.30;2.50;;;28.80;47.60;;;;;;5091193;28;20452;-70
2022/04/26 11:48:12;;;;;;;9.33;2.37;;;28.60;47.70;;;;;;5092685;28;20471;-70
2022/04/26 11:50:39;;;;;;;7.53;2.67;;;28.50;47.60;;;;;;5092535;28;20492;-69
2022/04/26 11:53:08;;;;;;;7.67;1.80;;;28.40;47.10;;;;;;5092853;28;20491;-71
2022/04/26 11:55:37;;;;;;;7.43;2.00;;;28.20;46.80;;;;;;5093036;28;21642;-70
2022/04/26 11:58:12;;;;;;;4.53;1.70;;;28.10;47.80;;;;;;5093050;28;20468;-70
2022/04/26 12:00:57;;;;;;;5.00;1.40;;;28.20;46.70;;;;;;5092761;28;20972;-70
2022/04/26 12:03:27;;;;;;;5.60;1.40;;;28.20;44.90;;;;;;5093034;28;20814;-70
2022/04/26 12:05:56;;;;;;;6.50;1.60;;;28.30;43.20;;;;;;5092820;28;20456;-70
2022/04/26 12:11:17;;;;;;;4.43;1.43;;;27.70;43.10;;;;;;5092209;28;20436;-70
2022/04/26 12:13:46;;;;;;;5.73;1.70;;;27.40;43.70;;;;;;5092570;28;20983;-70
2022/04/26 12:16:18;;;;;;;5.30;2.00;;;27.60;44.00;;;;;;5092389;28;20563;-69
2022/04/26 12:18:51;;;;;;;8.67;2.00;;;27.70;44.30;;;;;;5092573;28;20483;-70
2022/04/26 12:21:19;;;;;;;4.40;1.47;;;27.80;44.70;;;;;;5092257;28;20467;-70
2022/04/26 12:23:46;;;;;;;4.90;1.50;;;27.70;44.80;;;;;;5092435;28;20512;-71
2022/04/26 12:26:14;;;;;;;9.03;2.20;;;27.70;45.10;;;;;;5092402;28;20486;-71
2022/04/26 12:28:49;;;;;;;12.33;9.97;;;27.60;46.50;;;;;;5092459;28;20448;-71
2022/04/26 12:31:29;;;;;;;8.47;1.93;;;27.60;45.10;;;;;;5092424;28;20537;-70
2022/04/26 12:34:14;;;;;;;10.23;2.60;;;27.50;45.50;;;;;;5091865;28;21005;-70
2022/04/26 12:37:00;;;;;;;6.07;2.00;;;27.40;45.70;;;;;;5092172;28;20814;-71
2022/04/26 12:39:42;;;;;;;6.27;1.87;;;27.80;46.70;;;;;;5092170;28;20456;-71
2022/04/26 12:42:13;;;;;;;7.00;2.07;;;28.30;45.50;;;;;;5091833;28;20456;-71
2022/04/26 12:44:50;;;;;;;9.03;1.83;;;28.40;45.00;;;;;;5092143;28;20525;-70
2022/04/26 12:52:51;;;;;;;6.47;2.47;;;27.80;49.90;;;;;;5091800;28;20519;-70
2022/04/26 12:55:26;;;;;;;6.93;2.00;;;27.30;51.00;;;;;;5091569;28;20824;-71
2022/04/26 12:57:55;;;;;;;8.60;2.27;;;27.10;51.30;;;;;;5090671;28;20529;-70
2022/04/26 13:00:24;;;;;;;6.20;2.07;;;26.90;50.40;;;;;;5091873;28;20451;-70
2022/04/26 13:02:53;;;;;;;6.90;2.33;;;27.00;50.30;;;;;;5091174;28;20460;-70
2022/04/26 13:05:22;;;;;;;6.00;1.50;;;27.30;50.60;;;;;;5091413;28;20456;-71
2022/04/26 13:07:50;;;;;;;8.40;2.07;;;27.60;50.80;;;;;;5091463;28;20524;-71
2022/04/26 13:10:18;;;;;;;5.90;1.97;;;27.90;50.20;;;;;;5091317;28;20451;-71
2022/04/26 13:12:46;;;;;;;5.17;1.90;;;28.30;50.80;;;;;;5091634;28;20452;-71
2022/04/26 13:15:15;;;;;;;6.40;2.10;;;28.50;51.90;;;;;;5091703;28;20960;-71
2022/04/26 13:17:43;;;;;;;8.30;2.13;;;28.60;49.80;;;;;;5091139;28;20476;-70
2022/04/26 13:20:12;;;;;;;6.53;1.80;;;28.40;50.80;;;;;;5091248;28;20870;-70
2022/04/26 13:22:40;;;;;;;12.60;2.67;;;28.40;49.60;;;;;;5091606;28;20463;-71
2022/04/26 13:25:08;;;;;;;5.03;1.50;;;28.40;48.90;;;;;;5091430;28;20456;-70
2022/04/26 13:27:38;;;;;;;6.43;1.40;;;28.20;48.10;;;;;;5091290;28;20476;-70
2022/04/26 13:32:49;;;;;;;6.00;1.07;;;28.50;48.90;;;;;;5091660;27;20535;-71
2022/04/26 13:35:16;;;;;;;7.43;1.27;;;28.30;50.70;;;;;;5091239;28;20560;-72
2022/04/26 13:37:46;;;;;;;4.87;1.60;;;28.30;52.00;;;;;;5091129;28;20472;-75
2022/04/26 13:40:13;;;;;;;8.90;1.33;;;28.60;51.50;;;;;;5091230;28;20516;-75
2022/04/26 13:42:40;;;;;;;6.97;1.83;;;28.90;51.10;;;;;;5091092;28;20459;-76
2022/04/26 13:45:08;;;;;;;6.33;1.40;;;29.10;51.10;;;;;;5090810;28;20963;-76
2022/04/26 13:47:36;;;;;;;4.83;1.47;;;29.40;51.20;;;;;;5090679;28;20472;-74
2022/04/26 13:50:05;;;;;;;8.30;2.00;;;29.60;49.60;;;;;;5090296;28;20864;-75
2022/04/26 13:52:32;;;;;;;6.63;2.10;;;29.70;50.90;;;;;;5090869;28;20936;-76
2022/04/26 13:55:01;;;;;;;6.03;1.63;;;29.80;49.80;;;;;;5090080;28;20830;-75
2022/04/26 13:57:28;;;;;;;5.20;1.60;;;29.90;50.00;;;;;;5090539;28;20522;-75
2022/04/26 13:59:55;;;;;;;6.13;2.10;;;30.00;50.50;;;;;;5090591;28;20801;-75
2022/04/26 14:02:22;;;;;;;6.23;2.30;;;30.40;50.60;;;;;;5090500;28;20467;-75
2022/04/26 14:04:49;;;;;;;6.60;2.20;;;30.60;50.60;;;;;;5090012;28;20455;-76
2022/04/26 14:07:17;;;;;;;4.70;1.63;;;30.50;50.20;;;;;;5090473;28;20468;-75
2022/04/26 14:09:44;;;;;;;5.37;1.70;;;30.00;50.80;;;;;;5089448;28;20863;-76
2022/04/26 14:12:15;;;;;;;4.50;2.10;;;29.40;51.10;;;;;;5090502;28;21136;-74
2022/04/26 14:22:56;;;;;;;6.73;1.57;;;28.60;52.40;;;;;;5090229;28;20478;-76
2022/04/26 14:25:23;;;;;;;5.47;1.90;;;28.00;53.20;;;;;;5090269;28;20902;-76
2022/04/26 14:27:52;;;;;;;6.33;1.50;;;27.60;53.60;;;;;;5090300;28;20476;-76
2022/04/26 14:30:19;;;;;;;10.67;1.80;;;27.20;54.70;;;;;;5090345;28;20456;-76
2022/04/26 14:32:48;;;;;;;7.87;2.47;;;26.90;55.00;;;;;;5089950;28;20456;-76
2022/04/26 14:35:16;;;;;;;5.00;2.50;;;26.60;55.20;;;;;;5089840;28;20527;-71
2022/04/26 14:37:43;;;;;;;5.23;1.60;;;26.30;55.60;;;;;;5089997;28;20471;-71
2022/04/26 14:40:12;;;;;;;6.03;1.60;;;26.00;55.50;;;;;;5090151;28;20441;-72
2022/04/26 14:42:45;;;;;;;6.10;1.70;;;25.80;56.20;;;;;;5090100;28;20456;-71
2022/04/26 14:45:13;;;;;;;8.10;2.27;;;25.50;56.90;;;;;;5089825;28;20456;-69
2022/04/26 14:47:41;;;;;;;5.50;1.97;;;25.20;56.80;;;;;;5089778;28;20472;-70
2022/04/26 14:50:09;;;;;;;8.27;1.40;;;25.00;56.60;;;;;;5089431;28;20649;-71
2022/04/26 14:52:37;;;;;;;5.17;1.37;;;24.70;56.50;;;;;;5089717;28;20504;-70
2022/04/26 14:55:07;;;;;;;5.83;1.60;;;24.10;57.40;;;;;;5089865;28;20488;-72
2022/04/26 14:57:34;;;;;;;5.03;1.60;;;23.60;58.30;;;;;;5089890;28;21006;-71
2022/04/26 15:00:01;;;;;;;4.70;1.40;;;23.40;58.70;;;;;;5089779;28;20448;-70
2022/04/26 15:02:36;;;;;;;5.07;1.30;;;23.40;59.70;;;;;;5089325;28;20444;-69
2022/04/26 15:05:06;;;;;;;5.30;1.07;;;23.40;62.50;;;;;;5089666;28;20452;-71
2022/04/26 15:09:42;;;;;;;5.17;1.53;;;24.20;63.20;;;;;;5088426;28;20471;-70
2022/04/26 15:10:19;;;;;;;4.50;1.17;;;24.10;61.10;;;;;;5087880;28;20497;-70
2022/04/26 15:18:17;;;;;;;7.63;3.03;;;23.90;63.60;;;;;;5089289;28;20493;-75
2022/04/26 15:20:50;;;;;;;6.77;1.73;;;24.90;61.50;;;;;;5090915;28;20452;-77
2022/04/26 15:23:18;;;;;;;6.90;3.47;;;24.90;61.60;;;;;;5093579;28;20862;-78
2022/04/26 15:25:50;;;;;;;6.00;1.77;;;26.90;60.10;;;;;;5093412;28;20448;-77
2022/04/26 15:28:19;;;;;;;4.80;1.40;;;29.30;56.00;;;;;;5093520;28;20630;-76
2022/04/26 15:30:48;;;;;;;4.37;1.20;;;30.80;52.80;;;;;;5093202;28;20539;-79
2022/04/26 15:33:17;;;;;;;4.50;1.10;;;32.00;50.10;;;;;;5093093;28;20534;-78
2022/04/26 15:35:44;;;;;;;3.60;1.20;;;32.20;48.40;;;;;;5092348;28;20480;-78
2022/04/26 15:38:12;;;;;;;5.23;1.30;;;30.80;48.80;;;;;;5090113;28;20444;-77
2022/04/26 15:40:40;;;;;;;10.17;7.47;;;29.50;50.00;;;;;;5093413;28;20467;-78
2022/04/26 15:43:07;;;;;;;6.70;3.60;;;28.30;51.60;;;;;;5093055;28;20483;-77
2022/04/26 15:45:36;;;;;;;12.90;2.23;;;28.20;52.40;;;;;;5093183;28;20460;-76
2022/04/26 15:48:03;;;;;;;8.10;1.57;;;27.60;53.50;;;;;;5093003;28;20804;-77
2022/04/26 15:50:31;;;;;;;3.73;1.23;;;26.80;54.70;;;;;;5092181;28;20484;-77
2022/04/26 15:52:58;;;;;;;4.67;1.20;;;26.10;55.90;;;;;;5092882;28;20448;-78
2022/04/26 15:55:26;;;;;;;4.43;1.10;;;25.30;57.50;;;;;;5092648;28;20491;-77
2022/04/26 15:57:54;;;;;;;3.53;0.87;;;24.90;58.70;;;;;;5092692;28;20456;-77
2022/04/26 16:00:21;;;;;;;4.53;1.30;;;24.60;59.90;;;;;;5091723;28;20506;-77
2022/04/26 16:02:48;;;;;;;3.43;0.80;;;24.30;60.70;;;;;;5097932;28;20442;-77
2022/04/26 16:05:16;;;;;;;4.47;1.10;;;24.00;62.00;;;;;;5094537;28;20440;-78
2022/04/26 16:07:44;;;;;;;3.70;1.00;;;23.70;63.10;;;;;;5091883;28;20878;-75
2022/04/26 16:21:10;;;;;;;4.50;1.60;;;22.20;70.50;;;;;;5092004;28;20463;-74
2022/04/26 16:23:38;;;;;;;5.17;1.63;;;22.00;72.70;;;;;;5092024;28;20459;-75
2022/04/26 16:26:07;;;;;;;3.93;1.50;;;22.00;73.20;;;;;;5090994;28;20479;-78
2022/04/26 16:28:35;;;;;;;5.17;1.40;;;21.80;73.80;;;;;;5092113;28;20498;-74
2022/04/26 16:31:03;;;;;;;5.30;1.43;;;21.70;74.70;;;;;;5090880;28;21239;-73
2022/04/26 16:33:30;;;;;;;5.40;1.37;;;21.50;75.40;;;;;;5090141;28;20480;-72
2022/04/26 16:35:58;;;;;;;4.90;1.60;;;21.50;77.00;;;;;;5091236;28;20490;-71
2022/04/26 16:38:25;;;;;;;4.87;2.00;;;21.40;78.60;;;;;;5091643;28;20444;-74
2022/04/26 16:40:55;;;;;;;4.90;1.57;;;21.20;80.10;;;;;;5091866;28;20948;-74
2022/04/26 16:43:22;;;;;;;6.80;2.00;;;21.00;81.40;;;;;;5094120;28;20445;-75
2022/04/26 16:45:50;;;;;;;3.50;1.03;;;20.80;83.40;;;;;;5112273;28;20505;-75
2022/04/26 16:48:17;;;;;;;5.23;2.00;;;20.70;83.60;;;;;;5112115;28;20473;-77
2022/04/26 16:50:44;;;;;;;5.40;2.17;;;20.50;85.20;;;;;;5091075;28;20484;-79
2022/04/26 16:53:11;;;;;;;3.83;1.40;;;20.50;88.30;;;;;;5087062;28;20448;-74
2022/04/26 16:55:39;;;;;;;4.73;1.70;;;20.50;90.00;;;;;;5091586;28;20488;-74
2022/04/26 16:58:08;;;;;;;6.07;1.30;;;20.40;90.50;;;;;;5090482;28;20519;-74
2022/04/26 17:00:35;;;;;;;5.63;1.60;;;20.40;90.80;;;;;;5092550;28;20460;-78
2022/04/26 17:03:04;;;;;;;4.70;2.00;;;20.30;90.10;;;;;;5092321;28;20891;-79
2022/04/26 17:05:31;;;;;;;5.77;1.63;;;20.30;90.90;;;;;;5090805;28;20791;-79
2022/04/26 17:07:58;;;;;;;6.70;2.33;;;20.20;91.20;;;;;;5089550;28;20464;-78
2022/04/26 17:10:26;;;;;;;5.60;2.13;;;20.20;91.40;;;;;;5089621;28;20971;-77
2022/04/26 17:12:53;;;;;;;4.97;2.40;;;20.20;92.50;;;;;;5090163;28;20475;-77
2022/04/26 17:15:22;;;;;;;5.37;2.40;;;20.30;92.90;;;;;;5089362;28;20480;-77
2022/04/26 17:17:49;;;;;;;4.80;2.20;;;20.30;93.30;;;;;;5090235;28;20551;-79
2022/04/26 17:20:17;;;;;;;5.03;2.03;;;20.20;94.10;;;;;;5090264;28;20453;-83
2022/04/26 17:22:45;;;;;;;5.70;2.90;;;20.20;93.90;;;;;;5089976;28;20459;-81